Array ( [0] => 2014/09/22 02:00 [1] => LEIB 220200Z 01003KT 9999 FEW018 24/21 Q1013 NOSIG ) Sa Trinxa - Ibiza
picture

Partner

adSpot
Chicaria Records
Ibiza global radio
Ibiza Sonica
Partysan
Pioneer Pro DJ